Time;durP1;ratioP1;P1;durP2;ratioP2;P2;SDS_P1;SDS_P2;PMS_P1;PMS_P2;Temp;Humidity;BMP_temperature;BMP_pressure;BME280_temperature;BME280_humidity;BME280_pressure;Samples;Min_cycle;Max_cycle;Signal;HPM_P1;HPM_P2
2022/12/21 00:00:26;;;;;;;8.60;4.65;;;;;;;;;;5043570;28;20092;-73
2022/12/21 00:02:52;;;;;;;9.25;3.58;;;;;;;;;;5046952;28;20384;-73
2022/12/21 00:05:18;;;;;;;10.23;3.97;;;;;;;;;;5046249;28;20037;-73
2022/12/21 00:07:44;;;;;;;8.70;3.80;;;;;;;;;;5045888;28;20163;-73
2022/12/21 00:10:10;;;;;;;12.32;4.97;;;;;;;;;;5045470;28;20568;-74
2022/12/21 00:12:36;;;;;;;12.95;4.40;;;;;;;;;;5041519;28;20033;-73
2022/12/21 00:15:02;;;;;;;13.18;4.20;;;;;;;;;;5043574;28;20050;-73
2022/12/21 00:17:28;;;;;;;8.27;4.35;;;;;;;;;;5047183;28;20052;-73
2022/12/21 00:19:54;;;;;;;12.27;5.00;;;;;;;;;;5042190;28;20029;-73
2022/12/21 00:22:20;;;;;;;31.45;14.88;;;;;;;;;;5047650;28;20033;-73
2022/12/21 00:24:46;;;;;;;27.83;12.25;;;;;;;;;;5038940;28;20029;-73
2022/12/21 00:27:12;;;;;;;15.23;8.65;;;;;;;;;;5048171;28;20033;-73
2022/12/21 00:29:38;;;;;;;12.93;6.22;;;;;;;;;;5034801;28;20033;-73
2022/12/21 00:32:04;;;;;;;16.80;6.55;;;;;;;;;;5048378;28;20032;-73
2022/12/21 00:34:30;;;;;;;19.23;8.45;;;;;;;;;;5045025;28;20521;-73
2022/12/21 00:36:57;;;;;;;19.10;7.57;;;;;;;;;;5045903;28;20059;-73
2022/12/21 00:39:23;;;;;;;16.30;7.30;;;;;;;;;;5045409;28;20033;-73
2022/12/21 00:41:49;;;;;;;20.27;8.50;;;;;;;;;;5044800;28;20033;-73
2022/12/21 00:44:15;;;;;;;24.90;11.05;;;;;;;;;;5045356;28;20033;-72
2022/12/21 00:46:41;;;;;;;46.67;21.33;;;;;;;;;;5045091;28;20037;-72
2022/12/21 00:49:08;;;;;;;46.10;19.45;;;;;;;;;;5043430;28;20037;-73
2022/12/21 00:51:35;;;;;;;19.20;8.35;;;;;;;;;;5044638;28;20048;-73
2022/12/21 00:54:01;;;;;;;14.93;7.13;;;;;;;;;;5041854;28;20079;-73
2022/12/21 00:56:27;;;;;;;13.70;7.45;;;;;;;;;;5042808;28;20044;-73
2022/12/21 00:58:54;;;;;;;20.23;8.32;;;;;;;;;;5040054;28;20025;-73
2022/12/21 01:01:21;;;;;;;16.35;8.07;;;;;;;;;;5035736;28;20060;-72
2022/12/21 01:03:48;;;;;;;15.70;5.10;;;;;;;;;;5040935;28;20136;-73
2022/12/21 01:06:15;;;;;;;12.20;4.63;;;;;;;;;;5037761;28;20059;-73
2022/12/21 01:08:41;;;;;;;14.35;5.55;;;;;;;;;;5042963;28;20074;-73
2022/12/21 01:11:07;;;;;;;14.00;4.60;;;;;;;;;;5045893;28;20037;-73
2022/12/21 01:13:33;;;;;;;26.95;10.75;;;;;;;;;;5041626;28;20047;-73
2022/12/21 01:15:59;;;;;;;19.77;7.78;;;;;;;;;;5043130;28;20479;-73
2022/12/21 01:18:25;;;;;;;16.92;6.03;;;;;;;;;;5042960;28;20032;-73
2022/12/21 01:20:56;;;;;;;15.00;6.60;;;;;;;;;;5040445;28;20068;-72
2022/12/21 01:23:23;;;;;;;13.70;6.57;;;;;;;;;;5024424;28;20044;-72
2022/12/21 01:25:49;;;;;;;13.95;6.30;;;;;;;;;;5037009;28;20054;-73
2022/12/21 01:28:15;;;;;;;17.83;6.32;;;;;;;;;;5019598;28;20035;-73
2022/12/21 01:30:41;;;;;;;12.13;5.18;;;;;;;;;;5041204;28;20041;-72
2022/12/21 01:33:13;;;;;;;11.45;5.97;;;;;;;;;;5024136;28;20045;-73
2022/12/21 01:35:40;;;;;;;22.57;9.97;;;;;;;;;;5013979;28;20082;-73
2022/12/21 01:38:06;;;;;;;11.07;5.63;;;;;;;;;;5043128;28;20272;-72
2022/12/21 01:40:32;;;;;;;11.73;4.63;;;;;;;;;;5041593;28;20041;-73
2022/12/21 01:42:58;;;;;;;9.45;4.22;;;;;;;;;;5023389;28;20044;-73
2022/12/21 01:45:31;;;;;;;19.63;10.40;;;;;;;;;;5046523;28;20097;-73
2022/12/21 01:48:02;;;;;;;9.73;4.10;;;;;;;;;;5039308;28;20025;-72
2022/12/21 01:50:31;;;;;;;9.77;4.57;;;;;;;;;;5023331;28;20049;-72
2022/12/21 01:52:59;;;;;;;9.77;3.45;;;;;;;;;;5038952;28;20030;-73
2022/12/21 01:55:25;;;;;;;9.07;4.47;;;;;;;;;;5041617;28;20583;-73
2022/12/21 01:57:51;;;;;;;9.07;3.92;;;;;;;;;;5042994;28;20034;-73
2022/12/21 02:00:18;;;;;;;9.48;4.72;;;;;;;;;;5039287;28;20033;-73
2022/12/21 02:02:48;;;;;;;9.15;4.82;;;;;;;;;;5044224;28;20037;-73
2022/12/21 02:05:19;;;;;;;8.52;3.92;;;;;;;;;;5037381;28;20432;-73
2022/12/21 02:07:46;;;;;;;9.97;4.20;;;;;;;;;;5037983;28;20043;-72
2022/12/21 02:10:12;;;;;;;22.33;11.82;;;;;;;;;;5046352;28;20068;-73
2022/12/21 02:12:38;;;;;;;42.83;24.83;;;;;;;;;;5039121;28;20068;-73
2022/12/21 02:15:04;;;;;;;16.63;9.50;;;;;;;;;;5042731;28;20037;-72
2022/12/21 02:17:54;;;;;;;10.90;5.03;;;;;;;;;;5018074;28;20037;-73
2022/12/21 02:20:29;;;;;;;8.88;5.00;;;;;;;;;;5000228;28;20136;-72
2022/12/21 02:23:04;;;;;;;14.45;7.60;;;;;;;;;;5016931;28;20040;-73
2022/12/21 02:25:38;;;;;;;10.15;4.88;;;;;;;;;;5036500;28;20029;-73
2022/12/21 02:28:10;;;;;;;11.55;5.93;;;;;;;;;;5037278;28;20040;-73
2022/12/21 02:31:00;;;;;;;7.95;5.20;;;;;;;;;;5039401;28;20504;-72
2022/12/21 02:33:32;;;;;;;10.30;5.63;;;;;;;;;;5004075;28;20040;-72
2022/12/21 02:35:58;;;;;;;8.75;4.63;;;;;;;;;;5044791;28;20033;-73
2022/12/21 02:38:43;;;;;;;7.28;3.97;;;;;;;;;;5047946;28;20629;-73
2022/12/21 02:41:14;;;;;;;9.40;3.45;;;;;;;;;;5039317;28;20059;-72
2022/12/21 02:46:42;;;;;;;13.32;4.63;;;;;;;;;;5036393;28;20044;-73
2022/12/21 02:49:32;;;;;;;10.57;4.50;;;;;;;;;;5045384;28;20037;-72
2022/12/21 02:51:58;;;;;;;8.68;2.90;;;;;;;;;;4990327;28;20045;-73
2022/12/21 02:54:24;;;;;;;7.03;2.53;;;;;;;;;;5046653;28;20044;-73
2022/12/21 02:56:50;;;;;;;7.70;3.97;;;;;;;;;;5039454;28;20136;-73
2022/12/21 02:59:18;;;;;;;7.78;4.85;;;;;;;;;;5047422;28;20488;-73
2022/12/21 03:01:45;;;;;;;9.80;4.82;;;;;;;;;;5043471;28;20786;-72
2022/12/21 03:04:31;;;;;;;10.55;5.63;;;;;;;;;;5044432;28;20029;-73
2022/12/21 03:07:03;;;;;;;10.02;5.63;;;;;;;;;;5023918;28;20507;-73
2022/12/21 03:09:48;;;;;;;10.23;6.10;;;;;;;;;;5046013;28;20033;-72
2022/12/21 03:12:37;;;;;;;10.30;5.65;;;;;;;;;;5046553;28;20120;-72
2022/12/21 03:15:18;;;;;;;8.40;5.50;;;;;;;;;;5004377;28;20038;-73
2022/12/21 03:18:02;;;;;;;7.40;3.80;;;;;;;;;;5042419;28;20034;-73
2022/12/21 03:20:36;;;;;;;10.15;4.45;;;;;;;;;;5037198;28;20580;-73
2022/12/21 03:23:08;;;;;;;14.48;5.38;;;;;;;;;;5030430;28;20044;-72
2022/12/21 03:25:37;;;;;;;6.40;2.35;;;;;;;;;;5037747;28;20037;-72
2022/12/21 03:28:10;;;;;;;15.18;5.60;;;;;;;;;;5041973;28;20552;-72
2022/12/21 03:30:41;;;;;;;12.10;5.32;;;;;;;;;;5043760;28;20040;-72
2022/12/21 03:33:10;;;;;;;9.55;4.72;;;;;;;;;;5042732;28;20512;-72
2022/12/21 03:35:36;;;;;;;10.10;5.38;;;;;;;;;;5043966;28;20036;-73
2022/12/21 03:38:03;;;;;;;7.68;3.90;;;;;;;;;;5042874;28;20029;-72
2022/12/21 03:40:32;;;;;;;8.98;4.45;;;;;;;;;;5047567;28;20476;-72
2022/12/21 03:43:18;;;;;;;8.23;3.55;;;;;;;;;;5042389;28;20100;-72
2022/12/21 03:45:49;;;;;;;8.48;3.88;;;;;;;;;;5040394;28;20037;-72
2022/12/21 03:48:33;;;;;;;11.73;5.57;;;;;;;;;;5043378;28;20013;-72
2022/12/21 03:51:02;;;;;;;13.00;6.20;;;;;;;;;;5042068;28;20052;-73
2022/12/21 03:53:31;;;;;;;11.98;6.18;;;;;;;;;;5036171;28;20041;-71
2022/12/21 03:56:00;;;;;;;7.40;3.35;;;;;;;;;;5044121;28;20029;-73
2022/12/21 03:58:26;;;;;;;9.63;3.92;;;;;;;;;;5038592;28;20034;-72
2022/12/21 04:00:56;;;;;;;7.50;3.35;;;;;;;;;;5038037;28;20032;-72
2022/12/21 04:03:24;;;;;;;9.63;4.97;;;;;;;;;;5043496;28;20040;-72
2022/12/21 04:06:03;;;;;;;10.57;5.10;;;;;;;;;;5039623;28;20040;-73
2022/12/21 04:08:29;;;;;;;14.55;8.80;;;;;;;;;;5033106;28;20041;-72
2022/12/21 04:10:55;;;;;;;11.45;6.20;;;;;;;;;;5045395;28;20108;-73
2022/12/21 04:13:21;;;;;;;9.48;5.20;;;;;;;;;;5043590;28;20044;-73
2022/12/21 04:16:03;;;;;;;11.07;5.50;;;;;;;;;;5040861;28;20055;-72
2022/12/21 04:21:14;;;;;;;12.40;5.55;;;;;;;;;;5033888;28;20120;-73
2022/12/21 04:29:09;;;;;;;17.00;8.02;;;;;;;;;;5036758;28;20087;-72
2022/12/21 04:31:35;;;;;;;10.68;5.18;;;;;;;;;;5042274;28;20080;-71
2022/12/21 04:34:01;;;;;;;13.70;7.10;;;;;;;;;;5043372;28;20036;-72
2022/12/21 04:39:12;;;;;;;8.40;4.13;;;;;;;;;;5043972;28;20075;-73
2022/12/21 04:41:38;;;;;;;11.27;4.47;;;;;;;;;;5038193;28;20048;-72
2022/12/21 04:44:04;;;;;;;13.85;5.38;;;;;;;;;;5042342;28;20434;-72
2022/12/21 04:46:30;;;;;;;13.10;6.97;;;;;;;;;;5042397;28;20075;-72
2022/12/21 04:48:56;;;;;;;7.88;4.57;;;;;;;;;;5044286;28;20452;-73
2022/12/21 04:51:23;;;;;;;9.18;5.55;;;;;;;;;;5041703;28;20056;-73
2022/12/21 04:53:50;;;;;;;11.77;5.20;;;;;;;;;;5036905;28;20091;-73
2022/12/21 04:56:16;;;;;;;12.55;6.90;;;;;;;;;;5042348;28;20128;-72
2022/12/21 04:58:42;;;;;;;8.35;4.72;;;;;;;;;;5040757;28;20120;-72
2022/12/21 05:01:09;;;;;;;13.70;6.70;;;;;;;;;;5041227;28;20047;-73
2022/12/21 05:03:35;;;;;;;7.60;4.55;;;;;;;;;;5042660;28;20033;-73
2022/12/21 05:06:01;;;;;;;7.85;3.85;;;;;;;;;;5043821;28;20107;-72
2022/12/21 05:08:29;;;;;;;16.48;9.80;;;;;;;;;;5045794;28;20021;-73
2022/12/21 05:10:55;;;;;;;9.77;4.75;;;;;;;;;;5038471;28;20060;-73
2022/12/21 05:13:21;;;;;;;6.40;2.10;;;;;;;;;;5045262;28;20082;-73
2022/12/21 05:15:47;;;;;;;31.00;11.55;;;;;;;;;;5041381;28;20115;-72
2022/12/21 05:18:13;;;;;;;53.83;21.55;;;;;;;;;;5027264;28;20054;-73
2022/12/21 05:20:39;;;;;;;39.90;16.70;;;;;;;;;;5037997;28;20029;-73
2022/12/21 05:23:05;;;;;;;19.33;6.82;;;;;;;;;;5040564;28;20379;-73
2022/12/21 05:25:31;;;;;;;11.45;5.72;;;;;;;;;;5042197;28;20036;-72
2022/12/21 05:27:56;;;;;;;11.55;6.30;;;;;;;;;;5042535;28;20112;-72
2022/12/21 05:30:22;;;;;;;10.70;5.63;;;;;;;;;;5031578;28;20033;-72
2022/12/21 05:32:48;;;;;;;11.38;6.05;;;;;;;;;;5039772;28;20044;-73
2022/12/21 05:35:14;;;;;;;11.88;7.85;;;;;;;;;;5042624;28;20124;-73
2022/12/21 05:37:40;;;;;;;14.65;6.85;;;;;;;;;;5044353;28;20052;-72
2022/12/21 05:40:07;;;;;;;17.80;8.30;;;;;;;;;;5045630;28;20463;-73
2022/12/21 05:42:33;;;;;;;24.13;11.38;;;;;;;;;;5036827;28;20041;-72
2022/12/21 05:44:59;;;;;;;40.58;17.02;;;;;;;;;;5043417;28;20033;-73
2022/12/21 05:47:25;;;;;;;25.48;12.05;;;;;;;;;;5040840;28;20408;-73
2022/12/21 05:49:51;;;;;;;28.27;14.25;;;;;;;;;;5045206;28;20080;-73
2022/12/21 05:52:17;;;;;;;29.40;13.73;;;;;;;;;;5039567;28;20458;-72
2022/12/21 05:54:43;;;;;;;20.67;9.40;;;;;;;;;;5022767;28;20104;-73
2022/12/21 05:57:09;;;;;;;14.13;7.07;;;;;;;;;;5041605;28;20037;-72
2022/12/21 05:59:35;;;;;;;28.98;14.18;;;;;;;;;;5043334;28;20063;-73
2022/12/21 06:02:01;;;;;;;20.55;9.82;;;;;;;;;;5037740;28;20033;-73
2022/12/21 06:04:27;;;;;;;15.27;10.25;;;;;;;;;;5037012;28;20527;-72
2022/12/21 06:06:54;;;;;;;17.77;11.30;;;;;;;;;;5045117;28;20071;-72
2022/12/21 06:09:20;;;;;;;28.02;16.17;;;;;;;;;;5049247;28;20021;-72
2022/12/21 06:11:46;;;;;;;25.30;16.92;;;;;;;;;;5027869;28;20453;-73
2022/12/21 06:14:12;;;;;;;23.10;10.35;;;;;;;;;;5048642;28;20037;-72
2022/12/21 06:16:38;;;;;;;8.32;4.97;;;;;;;;;;5043646;28;20079;-73
2022/12/21 06:19:04;;;;;;;10.68;6.45;;;;;;;;;;5040417;28;20040;-72
2022/12/21 06:21:30;;;;;;;17.40;12.25;;;;;;;;;;5041545;28;20480;-73
2022/12/21 06:23:56;;;;;;;13.82;9.15;;;;;;;;;;5049526;28;20493;-73
2022/12/21 06:26:22;;;;;;;18.13;10.18;;;;;;;;;;5047238;28;20044;-72
2022/12/21 06:28:48;;;;;;;26.15;18.80;;;;;;;;;;5045190;28;20029;-72
2022/12/21 06:31:14;;;;;;;27.77;19.42;;;;;;;;;;5024706;28;20037;-72
2022/12/21 06:33:41;;;;;;;22.92;15.23;;;;;;;;;;5041046;28;20120;-72
2022/12/21 06:36:07;;;;;;;24.95;16.27;;;;;;;;;;5047824;28;20450;-72
2022/12/21 06:38:34;;;;;;;21.85;14.52;;;;;;;;;;5027791;28;20032;-72
2022/12/21 06:41:01;;;;;;;16.15;10.02;;;;;;;;;;5046310;28;20026;-72
2022/12/21 06:43:28;;;;;;;23.15;15.75;;;;;;;;;;5045695;28;20040;-72
2022/12/21 06:45:55;;;;;;;28.60;18.65;;;;;;;;;;5047677;28;20496;-73
2022/12/21 06:48:22;;;;;;;21.63;14.52;;;;;;;;;;5047854;28;20707;-73
2022/12/21 06:50:54;;;;;;;22.10;15.65;;;;;;;;;;5046061;28;20061;-72
2022/12/21 06:53:20;;;;;;;;;;;;;;;;;;5029080;28;20040;-73
2022/12/21 06:55:46;;;;;;;12.45;5.65;;;;;;;;;;5045604;28;19920;-72
2022/12/21 06:58:13;;;;;;;18.80;11.85;;;;;;;;;;5037915;28;20471;-73
2022/12/21 07:00:39;;;;;;;25.35;16.58;;;;;;;;;;5043427;28;20505;-72
2022/12/21 07:03:05;;;;;;;19.73;12.75;;;;;;;;;;5044296;28;20106;-73
2022/12/21 07:05:31;;;;;;;15.32;10.68;;;;;;;;;;5043738;28;20154;-73
2022/12/21 07:07:57;;;;;;;15.23;8.88;;;;;;;;;;5047442;28;20512;-73
2022/12/21 07:10:23;;;;;;;14.27;5.45;;;;;;;;;;5046414;28;20163;-72
2022/12/21 07:12:49;;;;;;;9.85;3.83;;;;;;;;;;5044562;28;20039;-73
2022/12/21 07:15:15;;;;;;;10.82;8.10;;;;;;;;;;5044757;28;20036;-72
2022/12/21 07:17:41;;;;;;;19.08;14.30;;;;;;;;;;5046621;28;20129;-72
2022/12/21 07:20:07;;;;;;;12.32;7.00;;;;;;;;;;5045787;28;20066;-73
2022/12/21 07:22:33;;;;;;;10.95;4.45;;;;;;;;;;5023914;28;20436;-73
2022/12/21 07:24:59;;;;;;;10.32;3.08;;;;;;;;;;5045194;28;20116;-73
2022/12/21 07:27:25;;;;;;;7.60;2.78;;;;;;;;;;5046856;28;20040;-73
2022/12/21 07:29:51;;;;;;;6.82;2.95;;;;;;;;;;5043434;28;20547;-73
2022/12/21 07:32:17;;;;;;;9.10;2.75;;;;;;;;;;5043297;28;20041;-73
2022/12/21 07:34:43;;;;;;;8.60;3.28;;;;;;;;;;5041313;28;22165;-73
2022/12/21 07:37:09;;;;;;;6.15;2.42;;;;;;;;;;5043485;28;20071;-72
2022/12/21 07:39:36;;;;;;;10.30;2.88;;;;;;;;;;5047053;28;20032;-73
2022/12/21 07:42:02;;;;;;;6.93;2.45;;;;;;;;;;5047802;28;20075;-72
2022/12/21 07:44:28;;;;;;;13.07;6.80;;;;;;;;;;5046027;28;20116;-73
2022/12/21 07:46:54;;;;;;;16.10;9.13;;;;;;;;;;5046651;28;20111;-72
2022/12/21 07:49:21;;;;;;;21.48;12.55;;;;;;;;;;5047546;28;20111;-72
2022/12/21 07:51:47;;;;;;;15.48;11.93;;;;;;;;;;5042165;28;20387;-73
2022/12/21 07:54:14;;;;;;;16.15;9.20;;;;;;;;;;5039926;28;20047;-72
2022/12/21 07:56:40;;;;;;;12.52;5.45;;;;;;;;;;5043013;28;20065;-72
2022/12/21 07:59:06;;;;;;;14.23;7.88;;;;;;;;;;5046959;28;20057;-73
2022/12/21 08:01:32;;;;;;;9.82;3.28;;;;;;;;;;5044749;28;20048;-72
2022/12/21 08:03:59;;;;;;;4.70;1.50;;;;;;;;;;5046898;28;20025;-72
2022/12/21 08:06:25;;;;;;;15.68;7.82;;;;;;;;;;5041783;28;20041;-72
2022/12/21 08:08:51;;;;;;;5.30;2.55;;;;;;;;;;5033064;28;20053;-72
2022/12/21 08:11:19;;;;;;;7.72;2.85;;;;;;;;;;5046951;28;20080;-73
2022/12/21 08:13:45;;;;;;;9.68;4.43;;;;;;;;;;5044579;28;20033;-72
2022/12/21 08:16:12;;;;;;;14.35;7.75;;;;;;;;;;5044525;28;20048;-72
2022/12/21 08:18:38;;;;;;;15.27;7.60;;;;;;;;;;5045097;28;20029;-72
2022/12/21 08:21:05;;;;;;;6.10;2.35;;;;;;;;;;5041959;28;20128;-73
2022/12/21 08:23:31;;;;;;;6.60;2.20;;;;;;;;;;5044686;28;20491;-73
2022/12/21 08:26:07;;;;;;;8.90;2.33;;;;;;;;;;5044742;28;20037;-72
2022/12/21 08:28:33;;;;;;;6.82;2.90;;;;;;;;;;5046295;28;20380;-72
2022/12/21 08:31:02;;;;;;;11.70;3.05;;;;;;;;;;5047367;28;20048;-72
2022/12/21 08:33:28;;;;;;;5.82;2.38;;;;;;;;;;5044579;28;20468;-73
2022/12/21 08:35:54;;;;;;;7.47;2.28;;;;;;;;;;5040167;28;20841;-73
2022/12/21 08:38:20;;;;;;;7.57;2.70;;;;;;;;;;5044957;28;20032;-72
2022/12/21 08:40:46;;;;;;;12.25;2.90;;;;;;;;;;5045903;28;20044;-72
2022/12/21 08:43:12;;;;;;;8.57;3.33;;;;;;;;;;5042881;28;20020;-73
2022/12/21 08:45:39;;;;;;;13.27;5.30;;;;;;;;;;5043274;28;20868;-72
2022/12/21 08:48:05;;;;;;;15.02;4.50;;;;;;;;;;5044154;28;20032;-73
2022/12/21 08:50:31;;;;;;;16.67;6.72;;;;;;;;;;5045493;28;20048;-72
2022/12/21 08:52:57;;;;;;;9.88;4.75;;;;;;;;;;5038240;28;20021;-73
2022/12/21 08:55:23;;;;;;;11.18;4.10;;;;;;;;;;5044465;28;20044;-72
2022/12/21 08:57:49;;;;;;;9.63;4.82;;;;;;;;;;5041699;28;20029;-73
2022/12/21 09:00:15;;;;;;;8.60;4.10;;;;;;;;;;5045787;28;20029;-73
2022/12/21 09:02:41;;;;;;;11.35;4.70;;;;;;;;;;5045277;28;20044;-72
2022/12/21 09:05:07;;;;;;;8.45;4.13;;;;;;;;;;5025158;28;20033;-72
2022/12/21 09:07:34;;;;;;;10.15;5.25;;;;;;;;;;5042346;28;20036;-72
2022/12/21 09:10:00;;;;;;;13.90;6.00;;;;;;;;;;5023950;28;20053;-72
2022/12/21 09:12:26;;;;;;;32.22;17.38;;;;;;;;;;5045149;28;20044;-72
2022/12/21 09:14:52;;;;;;;20.20;12.23;;;;;;;;;;5045275;28;20036;-72
2022/12/21 09:17:18;;;;;;;18.67;9.68;;;;;;;;;;5043835;28;20756;-72
2022/12/21 09:19:44;;;;;;;16.63;7.97;;;;;;;;;;5046958;28;20048;-73
2022/12/21 09:22:12;;;;;;;14.65;7.32;;;;;;;;;;5043303;28;20056;-72
2022/12/21 09:24:38;;;;;;;15.55;7.00;;;;;;;;;;5041596;28;20514;-72
2022/12/21 09:27:04;;;;;;;17.95;11.10;;;;;;;;;;5042931;28;20231;-73
2022/12/21 09:29:30;;;;;;;20.20;9.55;;;;;;;;;;5042938;28;20032;-73
2022/12/21 09:31:56;;;;;;;15.13;8.02;;;;;;;;;;5045222;28;20551;-72
2022/12/21 09:34:22;;;;;;;11.07;6.47;;;;;;;;;;5045506;28;20132;-73
2022/12/21 09:36:48;;;;;;;10.32;5.78;;;;;;;;;;5043024;28;20033;-72
2022/12/21 09:39:14;;;;;;;10.90;5.82;;;;;;;;;;5043949;28;20033;-73
2022/12/21 09:41:52;;;;;;;11.98;5.38;;;;;;;;;;5042868;28;20063;-72
2022/12/21 09:44:21;;;;;;;17.02;8.90;;;;;;;;;;5040819;28;20057;-72
2022/12/21 09:46:50;;;;;;;20.00;9.02;;;;;;;;;;5022159;28;20706;-73
2022/12/21 09:49:22;;;;;;;16.83;8.88;;;;;;;;;;5042304;28;20044;-72
2022/12/21 09:51:55;;;;;;;16.20;7.88;;;;;;;;;;5044538;28;20074;-73
2022/12/21 09:54:24;;;;;;;12.57;6.78;;;;;;;;;;5039607;28;20761;-73
2022/12/21 09:56:52;;;;;;;11.85;6.35;;;;;;;;;;5038048;28;20099;-72
2022/12/21 09:59:19;;;;;;;11.35;5.75;;;;;;;;;;5027319;28;20021;-73
2022/12/21 10:01:54;;;;;;;10.38;5.72;;;;;;;;;;5043475;28;20044;-73
2022/12/21 10:04:40;;;;;;;12.38;4.88;;;;;;;;;;5042065;28;20040;-72
2022/12/21 10:07:15;;;;;;;11.23;5.57;;;;;;;;;;5033613;28;20056;-72
2022/12/21 10:09:50;;;;;;;10.73;5.10;;;;;;;;;;5044346;28;20037;-72
2022/12/21 10:12:29;;;;;;;7.28;3.90;;;;;;;;;;5041979;28;20029;-72
2022/12/21 10:15:01;;;;;;;10.43;3.83;;;;;;;;;;5044135;28;20128;-72
2022/12/21 10:17:40;;;;;;;10.88;4.30;;;;;;;;;;5044818;28;20071;-73
2022/12/21 10:20:12;;;;;;;7.68;3.72;;;;;;;;;;5020931;28;20528;-72
2022/12/21 10:22:42;;;;;;;8.30;4.13;;;;;;;;;;5026149;28;20029;-73
2022/12/21 10:25:18;;;;;;;10.90;4.25;;;;;;;;;;5043018;28;20055;-72
2022/12/21 10:27:47;;;;;;;10.23;4.45;;;;;;;;;;5041762;28;20033;-73
2022/12/21 10:30:14;;;;;;;8.40;5.20;;;;;;;;;;5019650;28;20037;-72
2022/12/21 10:32:41;;;;;;;13.27;6.35;;;;;;;;;;5042414;28;20029;-73
2022/12/21 10:35:17;;;;;;;10.57;5.68;;;;;;;;;;5041647;28;20045;-73
2022/12/21 10:37:44;;;;;;;12.32;6.60;;;;;;;;;;5044134;28;20032;-72
2022/12/21 10:40:11;;;;;;;14.63;6.93;;;;;;;;;;5025091;28;20029;-73
2022/12/21 10:42:42;;;;;;;22.25;11.85;;;;;;;;;;5023441;28;20024;-72
2022/12/21 10:45:15;;;;;;;17.98;10.40;;;;;;;;;;5034299;28;20029;-73
2022/12/21 10:47:43;;;;;;;17.02;9.85;;;;;;;;;;5040743;28;20048;-72
2022/12/21 10:50:08;;;;;;;13.15;7.82;;;;;;;;;;5047738;28;20909;-73
2022/12/21 10:52:39;;;;;;;11.02;6.53;;;;;;;;;;5044144;28;20220;-73
2022/12/21 10:55:07;;;;;;;12.10;6.68;;;;;;;;;;5026218;28;20069;-73
2022/12/21 10:57:33;;;;;;;16.63;9.68;;;;;;;;;;5042374;28;20124;-73
2022/12/21 11:00:21;;;;;;;16.33;11.38;;;;;;;;;;5047705;28;20461;-73
2022/12/21 11:02:47;;;;;;;19.58;14.43;;;;;;;;;;5044762;28;20025;-72
2022/12/21 11:05:31;;;;;;;20.30;12.50;;;;;;;;;;5028751;28;20037;-73
2022/12/21 11:08:29;;;;;;;23.50;14.40;;;;;;;;;;5038832;28;20037;-72
2022/12/21 11:10:56;;;;;;;22.80;13.18;;;;;;;;;;4995373;28;20044;-73
2022/12/21 11:13:24;;;;;;;25.60;16.20;;;;;;;;;;5040448;28;20037;-73
2022/12/21 11:15:55;;;;;;;23.73;15.15;;;;;;;;;;5045703;28;20033;-72
2022/12/21 11:18:28;;;;;;;23.48;16.35;;;;;;;;;;5040767;28;20043;-72
2022/12/21 11:20:54;;;;;;;21.83;13.23;;;;;;;;;;5048333;28;20051;-72
2022/12/21 11:23:20;;;;;;;22.33;13.00;;;;;;;;;;5040322;28;20129;-72
2022/12/21 11:25:46;;;;;;;16.75;11.60;;;;;;;;;;5045811;28;20116;-73
2022/12/21 11:28:17;;;;;;;24.30;13.52;;;;;;;;;;5044606;28;20871;-72
2022/12/21 11:30:50;;;;;;;16.08;11.10;;;;;;;;;;5027931;28;20033;-73
2022/12/21 11:33:17;;;;;;;22.25;10.50;;;;;;;;;;5044538;28;20080;-73
2022/12/21 11:36:03;;;;;;;17.52;9.70;;;;;;;;;;5042676;28;20048;-72
2022/12/21 11:38:34;;;;;;;18.85;12.80;;;;;;;;;;5022364;28;20029;-73
2022/12/21 11:41:00;;;;;;;26.70;13.70;;;;;;;;;;5047748;28;20064;-72
2022/12/21 11:43:26;;;;;;;25.10;17.92;;;;;;;;;;5046765;28;20021;-72
2022/12/21 11:45:52;;;;;;;25.73;17.95;;;;;;;;;;5047144;28;20047;-73
2022/12/21 11:48:23;;;;;;;26.70;18.40;;;;;;;;;;5043228;28;20040;-72
2022/12/21 11:50:55;;;;;;;27.17;18.95;;;;;;;;;;5044307;28;20052;-72
2022/12/21 11:53:35;;;;;;;32.60;21.83;;;;;;;;;;5043657;28;20036;-72
2022/12/21 11:56:19;;;;;;;36.55;22.98;;;;;;;;;;5047076;28;20075;-73
2022/12/21 11:59:04;;;;;;;29.75;19.38;;;;;;;;;;5043483;28;20060;-73
2022/12/21 12:01:33;;;;;;;26.40;16.38;;;;;;;;;;5046568;28;20480;-72
2022/12/21 12:03:59;;;;;;;25.45;17.25;;;;;;;;;;5045634;28;20048;-73
2022/12/21 12:06:34;;;;;;;27.48;17.73;;;;;;;;;;5044248;28;20041;-72
2022/12/21 12:09:00;;;;;;;27.50;19.35;;;;;;;;;;5045561;28;20067;-73
2022/12/21 12:11:32;;;;;;;25.42;16.60;;;;;;;;;;5024340;28;20076;-73
2022/12/21 12:14:23;;;;;;;24.23;15.75;;;;;;;;;;5041041;28;20404;-73
2022/12/21 12:17:18;;;;;;;19.60;12.43;;;;;;;;;;5041214;28;20033;-72
2022/12/21 12:20:03;;;;;;;21.10;11.10;;;;;;;;;;5021868;28;20045;-73
2022/12/21 12:22:35;;;;;;;16.77;10.60;;;;;;;;;;5044481;28;20074;-72
2022/12/21 12:25:14;;;;;;;19.95;15.15;;;;;;;;;;5045480;28;20132;-72
2022/12/21 12:27:41;;;;;;;19.45;11.50;;;;;;;;;;5045894;28;20124;-72
2022/12/21 12:30:10;;;;;;;14.98;11.02;;;;;;;;;;5037322;28;20029;-73
2022/12/21 12:32:40;;;;;;;15.00;9.93;;;;;;;;;;5045898;28;20041;-72
2022/12/21 12:35:12;;;;;;;14.13;9.93;;;;;;;;;;5042794;28;20033;-72
2022/12/21 12:37:50;;;;;;;18.20;10.18;;;;;;;;;;5045910;28;20037;-72
2022/12/21 12:40:25;;;;;;;21.00;9.93;;;;;;;;;;5042116;28;20036;-73
2022/12/21 12:43:00;;;;;;;13.55;9.02;;;;;;;;;;5038902;28;20399;-73
2022/12/21 12:45:26;;;;;;;16.30;11.02;;;;;;;;;;5043267;28;20507;-73
2022/12/21 12:48:05;;;;;;;18.52;10.40;;;;;;;;;;5038944;28;20061;-73
2022/12/21 12:50:37;;;;;;;17.42;11.23;;;;;;;;;;5043780;28;20083;-72
2022/12/21 12:53:12;;;;;;;17.95;11.32;;;;;;;;;;5039787;28;20083;-73
2022/12/21 12:55:57;;;;;;;16.42;11.35;;;;;;;;;;5045984;28;20067;-73
2022/12/21 12:58:34;;;;;;;20.90;12.48;;;;;;;;;;5045818;28;20346;-73
2022/12/21 13:01:03;;;;;;;16.52;9.50;;;;;;;;;;5042870;28;20055;-72
2022/12/21 13:03:36;;;;;;;19.35;11.27;;;;;;;;;;5043481;28;20044;-72
2022/12/21 13:06:21;;;;;;;21.77;15.30;;;;;;;;;;5022943;28;20037;-72
2022/12/21 13:09:02;;;;;;;21.23;15.82;;;;;;;;;;5042563;28;20657;-73
2022/12/21 13:11:47;;;;;;;26.08;19.02;;;;;;;;;;5037701;28;20029;-73
2022/12/21 13:14:24;;;;;;;28.10;20.90;;;;;;;;;;5041258;28;20037;-72
2022/12/21 13:16:59;;;;;;;23.20;15.82;;;;;;;;;;5043557;28;20116;-72
2022/12/21 13:19:27;;;;;;;22.25;16.58;;;;;;;;;;5041992;28;20033;-73
2022/12/21 13:21:53;;;;;;;22.35;15.10;;;;;;;;;;5023072;28;20044;-72
2022/12/21 13:24:32;;;;;;;21.92;15.10;;;;;;;;;;5044292;28;20688;-72
2022/12/21 13:26:59;;;;;;;21.90;15.00;;;;;;;;;;5040716;28;20037;-72
2022/12/21 13:29:28;;;;;;;17.85;13.50;;;;;;;;;;5037490;28;20515;-72
2022/12/21 13:31:59;;;;;;;20.00;13.70;;;;;;;;;;5043401;28;20047;-73
2022/12/21 13:34:25;;;;;;;18.80;13.57;;;;;;;;;;5043735;28;20056;-72
2022/12/21 13:36:51;;;;;;;17.83;12.77;;;;;;;;;;5040435;28;20033;-73
2022/12/21 13:39:20;;;;;;;21.10;13.98;;;;;;;;;;5041880;28;20066;-73
2022/12/21 13:42:01;;;;;;;20.23;12.73;;;;;;;;;;5040698;28;20475;-73
2022/12/21 13:44:31;;;;;;;21.58;11.45;;;;;;;;;;5044158;28;20037;-72
2022/12/21 13:46:58;;;;;;;18.13;10.65;;;;;;;;;;5043416;28;20033;-72
2022/12/21 13:49:24;;;;;;;15.52;9.00;;;;;;;;;;5025010;28;20411;-73
2022/12/21 13:51:52;;;;;;;14.20;7.25;;;;;;;;;;5046234;28;20040;-74
2022/12/21 13:54:21;;;;;;;19.15;8.63;;;;;;;;;;5044072;28;20048;-73
2022/12/21 13:56:56;;;;;;;20.05;10.02;;;;;;;;;;5044216;28;20029;-72
2022/12/21 13:59:26;;;;;;;14.40;6.88;;;;;;;;;;5043105;28;20117;-73
2022/12/21 14:01:58;;;;;;;8.73;5.00;;;;;;;;;;5040522;28;20033;-73
2022/12/21 14:04:24;;;;;;;;;;;;;;;;;;5025348;28;20806;-73
2022/12/21 14:07:13;;;;;;;12.32;5.72;;;;;;;;;;5040195;28;19917;-73
2022/12/21 14:09:58;;;;;;;11.57;5.00;;;;;;;;;;5043419;28;20119;-73
2022/12/21 14:12:24;;;;;;;10.13;3.30;;;;;;;;;;5046323;28;20048;-73
2022/12/21 14:15:17;;;;;;;7.78;4.35;;;;;;;;;;5043897;28;20037;-72
2022/12/21 14:17:42;;;;;;;;;;;;;;;;;;5043873;28;20029;-72
2022/12/21 14:20:19;;;;;;;11.45;5.65;;;;;;;;;;5039976;28;20371;-72
2022/12/21 14:22:46;;;;;;;25.45;15.52;;;;;;;;;;5036165;28;20447;-72
2022/12/21 14:25:20;;;;;;;35.40;17.40;;;;;;;;;;5047605;28;20041;-72
2022/12/21 14:28:02;;;;;;;22.02;12.02;;;;;;;;;;5048303;28;20033;-73
2022/12/21 14:30:31;;;;;;;22.05;12.32;;;;;;;;;;5041461;28;20045;-72
2022/12/21 14:33:03;;;;;;;19.20;10.00;;;;;;;;;;5045782;28;20033;-72
2022/12/21 14:35:38;;;;;;;20.23;10.53;;;;;;;;;;5045006;28;20080;-72
2022/12/21 14:38:19;;;;;;;17.98;11.43;;;;;;;;;;5048194;28;20033;-72
2022/12/21 14:40:56;;;;;;;17.52;10.68;;;;;;;;;;5045864;28;20033;-72
2022/12/21 14:43:22;;;;;;;16.63;9.70;;;;;;;;;;5045327;28;20718;-72
2022/12/21 14:45:48;;;;;;;20.15;10.05;;;;;;;;;;5039465;28;20068;-72
2022/12/21 14:48:26;;;;;;;20.50;11.10;;;;;;;;;;5042339;28;20040;-73
2022/12/21 14:50:55;;;;;;;15.77;10.05;;;;;;;;;;5044401;28;20087;-73
2022/12/21 14:53:21;;;;;;;17.27;12.15;;;;;;;;;;5048371;28;20056;-72
2022/12/21 14:55:59;;;;;;;16.80;12.27;;;;;;;;;;5047417;28;20099;-73